sensor_id;sensor_type;location;lat;lon;timestamp;temperature;humidity
21807;DHT22;11065;50.786;7.840;2023-02-02T00:01:33;10.40;56.30
21807;DHT22;11065;50.786;7.840;2023-02-02T00:04:01;10.40;56.30
21807;DHT22;11065;50.786;7.840;2023-02-02T00:06:30;10.40;56.20
21807;DHT22;11065;50.786;7.840;2023-02-02T00:09:00;10.40;56.20
21807;DHT22;11065;50.786;7.840;2023-02-02T00:11:28;10.40;56.20
21807;DHT22;11065;50.786;7.840;2023-02-02T00:13:57;10.40;56.20
21807;DHT22;11065;50.786;7.840;2023-02-02T00:16:39;10.40;56.10
21807;DHT22;11065;50.786;7.840;2023-02-02T00:19:10;10.50;56.10
21807;DHT22;11065;50.786;7.840;2023-02-02T00:21:38;10.40;56.00
21807;DHT22;11065;50.786;7.840;2023-02-02T00:24:07;10.40;56.00
21807;DHT22;11065;50.786;7.840;2023-02-02T00:26:36;10.40;56.00
21807;DHT22;11065;50.786;7.840;2023-02-02T00:29:05;10.40;55.90
21807;DHT22;11065;50.786;7.840;2023-02-02T00:31:34;10.40;55.90
21807;DHT22;11065;50.786;7.840;2023-02-02T00:34:04;10.40;55.90
21807;DHT22;11065;50.786;7.840;2023-02-02T00:36:32;10.40;56.00
21807;DHT22;11065;50.786;7.840;2023-02-02T00:39:00;10.40;56.00
21807;DHT22;11065;50.786;7.840;2023-02-02T00:41:28;10.40;56.00
21807;DHT22;11065;50.786;7.840;2023-02-02T00:43:56;10.40;56.00
21807;DHT22;11065;50.786;7.840;2023-02-02T00:46:42;10.40;56.00
21807;DHT22;11065;50.786;7.840;2023-02-02T00:49:11;10.40;56.00
21807;DHT22;11065;50.786;7.840;2023-02-02T00:51:39;10.40;56.00
21807;DHT22;11065;50.786;7.840;2023-02-02T00:54:07;10.40;56.00
21807;DHT22;11065;50.786;7.840;2023-02-02T00:56:35;10.40;56.00
21807;DHT22;11065;50.786;7.840;2023-02-02T00:59:03;10.40;56.00
21807;DHT22;11065;50.786;7.840;2023-02-02T01:01:31;10.40;56.00
21807;DHT22;11065;50.786;7.840;2023-02-02T01:03:59;10.40;56.00
21807;DHT22;11065;50.786;7.840;2023-02-02T01:06:28;10.40;56.00
21807;DHT22;11065;50.786;7.840;2023-02-02T01:08:56;10.40;56.10
21807;DHT22;11065;50.786;7.840;2023-02-02T01:11:24;10.40;56.10
21807;DHT22;11065;50.786;7.840;2023-02-02T01:13:52;10.40;56.10
21807;DHT22;11065;50.786;7.840;2023-02-02T01:16:20;10.40;56.10
21807;DHT22;11065;50.786;7.840;2023-02-02T01:18:49;10.40;56.10
21807;DHT22;11065;50.786;7.840;2023-02-02T01:21:18;10.40;56.10
21807;DHT22;11065;50.786;7.840;2023-02-02T01:23:48;10.40;56.10
21807;DHT22;11065;50.786;7.840;2023-02-02T01:26:16;10.60;56.10
21807;DHT22;11065;50.786;7.840;2023-02-02T01:28:45;10.40;56.50
21807;DHT22;11065;50.786;7.840;2023-02-02T01:31:15;10.40;56.10
21807;DHT22;11065;50.786;7.840;2023-02-02T01:33:44;10.40;56.10
21807;DHT22;11065;50.786;7.840;2023-02-02T01:36:14;10.40;56.50
21807;DHT22;11065;50.786;7.840;2023-02-02T01:38:43;10.40;56.10
21807;DHT22;11065;50.786;7.840;2023-02-02T01:41:14;10.40;56.10
21807;DHT22;11065;50.786;7.840;2023-02-02T01:43:55;10.50;56.20
21807;DHT22;11065;50.786;7.840;2023-02-02T01:46:25;10.40;56.20
21807;DHT22;11065;50.786;7.840;2023-02-02T01:48:58;10.40;56.20
21807;DHT22;11065;50.786;7.840;2023-02-02T01:51:30;10.40;56.20
21807;DHT22;11065;50.786;7.840;2023-02-02T01:54:00;10.40;56.20
21807;DHT22;11065;50.786;7.840;2023-02-02T01:56:34;10.40;56.30
21807;DHT22;11065;50.786;7.840;2023-02-02T01:59:04;10.40;56.30
21807;DHT22;11065;50.786;7.840;2023-02-02T02:01:33;10.30;56.30
21807;DHT22;11065;50.786;7.840;2023-02-02T02:04:01;10.40;56.30
21807;DHT22;11065;50.786;7.840;2023-02-02T02:06:30;10.30;56.50
21807;DHT22;11065;50.786;7.840;2023-02-02T02:09:02;10.30;56.40
21807;DHT22;11065;50.786;7.840;2023-02-02T02:11:34;10.30;56.50
21807;DHT22;11065;50.786;7.840;2023-02-02T02:14:05;10.30;56.60
21807;DHT22;11065;50.786;7.840;2023-02-02T02:17:04;10.30;56.90
21807;DHT22;11065;50.786;7.840;2023-02-02T02:23:20;10.30;57.00
21807;DHT22;11065;50.786;7.840;2023-02-02T02:26:31;10.30;57.10
21807;DHT22;11065;50.786;7.840;2023-02-02T02:29:40;10.20;56.90
21807;DHT22;11065;50.786;7.840;2023-02-02T02:32:24;10.20;57.10
21807;DHT22;11065;50.786;7.840;2023-02-02T02:35:00;10.20;57.10
21807;DHT22;11065;50.786;7.840;2023-02-02T02:37:37;10.20;57.10
21807;DHT22;11065;50.786;7.840;2023-02-02T02:40:12;10.20;57.20
21807;DHT22;11065;50.786;7.840;2023-02-02T02:42:45;10.20;57.20
21807;DHT22;11065;50.786;7.840;2023-02-02T02:45:16;10.20;57.50
21807;DHT22;11065;50.786;7.840;2023-02-02T02:47:47;10.10;57.20
21807;DHT22;11065;50.786;7.840;2023-02-02T02:50:16;10.10;57.50
21807;DHT22;11065;50.786;7.840;2023-02-02T02:52:45;10.10;57.30
21807;DHT22;11065;50.786;7.840;2023-02-02T02:55:14;10.30;57.50
21807;DHT22;11065;50.786;7.840;2023-02-02T02:57:57;10.10;57.40
21807;DHT22;11065;50.786;7.840;2023-02-02T03:00:38;10.10;57.70
21807;DHT22;11065;50.786;7.840;2023-02-02T03:03:23;10.10;57.70
21807;DHT22;11065;50.786;7.840;2023-02-02T03:06:02;10.10;57.60
21807;DHT22;11065;50.786;7.840;2023-02-02T03:08:35;10.10;57.60
21807;DHT22;11065;50.786;7.840;2023-02-02T03:11:07;10.10;57.70
21807;DHT22;11065;50.786;7.840;2023-02-02T03:13:37;10.10;57.80
21807;DHT22;11065;50.786;7.840;2023-02-02T03:16:07;10.10;57.70
21807;DHT22;11065;50.786;7.840;2023-02-02T03:18:36;10.10;57.90
21807;DHT22;11065;50.786;7.840;2023-02-02T03:21:05;10.10;57.80
21807;DHT22;11065;50.786;7.840;2023-02-02T03:23:33;10.10;57.80
21807;DHT22;11065;50.786;7.840;2023-02-02T03:26:01;10.10;57.80
21807;DHT22;11065;50.786;7.840;2023-02-02T03:28:30;10.10;57.80
21807;DHT22;11065;50.786;7.840;2023-02-02T03:30:59;10.10;57.90
21807;DHT22;11065;50.786;7.840;2023-02-02T03:33:30;10.10;57.90
21807;DHT22;11065;50.786;7.840;2023-02-02T03:36:00;10.10;57.90
21807;DHT22;11065;50.786;7.840;2023-02-02T03:38:27;10.10;58.00
21807;DHT22;11065;50.786;7.840;2023-02-02T03:40:56;10.10;58.20
21807;DHT22;11065;50.786;7.840;2023-02-02T03:43:24;10.10;58.10
21807;DHT22;11065;50.786;7.840;2023-02-02T03:45:56;10.10;58.10
21807;DHT22;11065;50.786;7.840;2023-02-02T03:48:24;10.10;58.10
21807;DHT22;11065;50.786;7.840;2023-02-02T03:50:52;10.10;58.00
21807;DHT22;11065;50.786;7.840;2023-02-02T03:53:22;9.90;57.90
21807;DHT22;11065;50.786;7.840;2023-02-02T03:55:50;10.10;58.00
21807;DHT22;11065;50.786;7.840;2023-02-02T03:58:18;10.00;58.00
21807;DHT22;11065;50.786;7.840;2023-02-02T04:00:48;10.00;58.00
21807;DHT22;11065;50.786;7.840;2023-02-02T04:03:16;10.00;58.10
21807;DHT22;11065;50.786;7.840;2023-02-02T04:05:48;10.00;58.40
21807;DHT22;11065;50.786;7.840;2023-02-02T04:08:16;10.00;58.20
21807;DHT22;11065;50.786;7.840;2023-02-02T04:10:46;10.00;58.30
21807;DHT22;11065;50.786;7.840;2023-02-02T04:13:14;10.00;58.20
21807;DHT22;11065;50.786;7.840;2023-02-02T04:15:42;10.00;58.20
21807;DHT22;11065;50.786;7.840;2023-02-02T04:18:10;10.00;58.20
21807;DHT22;11065;50.786;7.840;2023-02-02T04:20:38;10.00;58.30
21807;DHT22;11065;50.786;7.840;2023-02-02T04:23:06;10.00;58.20
21807;DHT22;11065;50.786;7.840;2023-02-02T04:25:34;10.00;58.20
21807;DHT22;11065;50.786;7.840;2023-02-02T04:28:03;10.00;58.20
21807;DHT22;11065;50.786;7.840;2023-02-02T04:30:31;10.00;58.30
21807;DHT22;11065;50.786;7.840;2023-02-02T04:32:59;10.00;58.30
21807;DHT22;11065;50.786;7.840;2023-02-02T04:35:27;10.00;58.30
21807;DHT22;11065;50.786;7.840;2023-02-02T04:37:56;10.00;58.40
21807;DHT22;11065;50.786;7.840;2023-02-02T04:40:24;10.10;58.40
21807;DHT22;11065;50.786;7.840;2023-02-02T04:42:51;10.00;58.30
21807;DHT22;11065;50.786;7.840;2023-02-02T04:45:21;10.00;58.40
21807;DHT22;11065;50.786;7.840;2023-02-02T04:47:50;10.00;58.30
21807;DHT22;11065;50.786;7.840;2023-02-02T04:50:18;10.00;58.30
21807;DHT22;11065;50.786;7.840;2023-02-02T04:52:46;10.00;58.30
21807;DHT22;11065;50.786;7.840;2023-02-02T04:55:14;10.00;58.30
21807;DHT22;11065;50.786;7.840;2023-02-02T04:57:42;10.10;58.40
21807;DHT22;11065;50.786;7.840;2023-02-02T05:00:11;10.00;58.50
21807;DHT22;11065;50.786;7.840;2023-02-02T05:02:41;10.00;58.50
21807;DHT22;11065;50.786;7.840;2023-02-02T05:05:12;10.00;58.50
21807;DHT22;11065;50.786;7.840;2023-02-02T05:07:40;10.00;58.50
21807;DHT22;11065;50.786;7.840;2023-02-02T05:10:09;10.10;58.50
21807;DHT22;11065;50.786;7.840;2023-02-02T05:12:37;10.00;58.50
21807;DHT22;11065;50.786;7.840;2023-02-02T05:15:06;10.10;58.60
21807;DHT22;11065;50.786;7.840;2023-02-02T05:17:35;10.10;58.60
21807;DHT22;11065;50.786;7.840;2023-02-02T05:20:05;10.00;58.50
21807;DHT22;11065;50.786;7.840;2023-02-02T05:22:33;10.00;58.60
21807;DHT22;11065;50.786;7.840;2023-02-02T05:25:01;10.00;58.60
21807;DHT22;11065;50.786;7.840;2023-02-02T05:27:29;10.00;58.60
21807;DHT22;11065;50.786;7.840;2023-02-02T05:29:58;10.00;58.60
21807;DHT22;11065;50.786;7.840;2023-02-02T05:32:26;10.00;58.60
21807;DHT22;11065;50.786;7.840;2023-02-02T05:34:55;10.10;58.60
21807;DHT22;11065;50.786;7.840;2023-02-02T05:37:24;10.00;58.60
21807;DHT22;11065;50.786;7.840;2023-02-02T05:39:52;10.00;58.60
21807;DHT22;11065;50.786;7.840;2023-02-02T05:42:20;10.00;58.60
21807;DHT22;11065;50.786;7.840;2023-02-02T05:44:48;10.10;58.70
21807;DHT22;11065;50.786;7.840;2023-02-02T05:47:16;10.00;58.60
21807;DHT22;11065;50.786;7.840;2023-02-02T05:49:45;10.00;59.10
21807;DHT22;11065;50.786;7.840;2023-02-02T05:52:15;10.00;58.70
21807;DHT22;11065;50.786;7.840;2023-02-02T05:54:45;10.00;58.80
21807;DHT22;11065;50.786;7.840;2023-02-02T05:57:14;10.00;58.80
21807;DHT22;11065;50.786;7.840;2023-02-02T05:59:42;10.00;58.70
21807;DHT22;11065;50.786;7.840;2023-02-02T06:02:10;10.00;58.80
21807;DHT22;11065;50.786;7.840;2023-02-02T06:04:38;10.00;58.80
21807;DHT22;11065;50.786;7.840;2023-02-02T06:07:06;10.00;58.70
21807;DHT22;11065;50.786;7.840;2023-02-02T06:09:34;10.00;58.70
21807;DHT22;11065;50.786;7.840;2023-02-02T06:12:04;10.00;58.80
21807;DHT22;11065;50.786;7.840;2023-02-02T06:14:32;10.00;58.80
21807;DHT22;11065;50.786;7.840;2023-02-02T06:17:00;10.00;58.80
21807;DHT22;11065;50.786;7.840;2023-02-02T06:19:28;10.00;59.10
21807;DHT22;11065;50.786;7.840;2023-02-02T06:21:57;10.00;59.00
21807;DHT22;11065;50.786;7.840;2023-02-02T06:24:25;10.00;59.00
21807;DHT22;11065;50.786;7.840;2023-02-02T06:26:53;10.00;58.90
21807;DHT22;11065;50.786;7.840;2023-02-02T06:29:23;10.00;58.90
21807;DHT22;11065;50.786;7.840;2023-02-02T06:31:51;10.00;59.00
21807;DHT22;11065;50.786;7.840;2023-02-02T06:34:19;10.00;59.00
21807;DHT22;11065;50.786;7.840;2023-02-02T06:36:47;10.00;59.10
21807;DHT22;11065;50.786;7.840;2023-02-02T06:39:15;10.00;59.10
21807;DHT22;11065;50.786;7.840;2023-02-02T06:41:43;10.00;59.10
21807;DHT22;11065;50.786;7.840;2023-02-02T06:44:12;10.00;59.10
21807;DHT22;11065;50.786;7.840;2023-02-02T06:46:42;10.00;59.10
21807;DHT22;11065;50.786;7.840;2023-02-02T06:49:10;10.00;59.00
21807;DHT22;11065;50.786;7.840;2023-02-02T06:51:38;10.00;59.10
21807;DHT22;11065;50.786;7.840;2023-02-02T06:54:06;10.00;59.10
21807;DHT22;11065;50.786;7.840;2023-02-02T06:56:34;10.00;59.10
21807;DHT22;11065;50.786;7.840;2023-02-02T06:59:02;10.00;59.10
21807;DHT22;11065;50.786;7.840;2023-02-02T07:01:30;10.00;59.10
21807;DHT22;11065;50.786;7.840;2023-02-02T07:04:00;10.00;59.10
21807;DHT22;11065;50.786;7.840;2023-02-02T07:06:28;10.00;59.20
21807;DHT22;11065;50.786;7.840;2023-02-02T07:08:57;10.00;59.10
21807;DHT22;11065;50.786;7.840;2023-02-02T07:11:29;10.00;59.10
21807;DHT22;11065;50.786;7.840;2023-02-02T07:14:01;10.00;59.20
21807;DHT22;11065;50.786;7.840;2023-02-02T07:16:30;10.00;59.10
21807;DHT22;11065;50.786;7.840;2023-02-02T07:19:00;10.00;59.20
21807;DHT22;11065;50.786;7.840;2023-02-02T07:21:28;10.00;59.20
21807;DHT22;11065;50.786;7.840;2023-02-02T07:24:02;10.00;59.10
21807;DHT22;11065;50.786;7.840;2023-02-02T07:26:30;10.00;59.10
21807;DHT22;11065;50.786;7.840;2023-02-02T07:28:58;10.00;59.20
21807;DHT22;11065;50.786;7.840;2023-02-02T07:31:27;10.00;59.20
21807;DHT22;11065;50.786;7.840;2023-02-02T07:33:55;10.00;59.20
21807;DHT22;11065;50.786;7.840;2023-02-02T07:36:25;10.00;59.20
21807;DHT22;11065;50.786;7.840;2023-02-02T07:38:53;10.00;59.80
21807;DHT22;11065;50.786;7.840;2023-02-02T07:41:23;10.00;59.20
21807;DHT22;11065;50.786;7.840;2023-02-02T07:43:51;10.00;59.10
21807;DHT22;11065;50.786;7.840;2023-02-02T07:46:20;10.00;59.70
21807;DHT22;11065;50.786;7.840;2023-02-02T07:48:48;10.00;59.30
21807;DHT22;11065;50.786;7.840;2023-02-02T07:51:16;10.00;59.30
21807;DHT22;11065;50.786;7.840;2023-02-02T07:53:47;10.00;59.30
21807;DHT22;11065;50.786;7.840;2023-02-02T07:56:17;10.00;59.70
21807;DHT22;11065;50.786;7.840;2023-02-02T07:58:46;10.00;59.30
21807;DHT22;11065;50.786;7.840;2023-02-02T08:01:15;10.00;59.30
21807;DHT22;11065;50.786;7.840;2023-02-02T08:03:43;10.00;59.30
21807;DHT22;11065;50.786;7.840;2023-02-02T08:06:14;10.00;59.30
21807;DHT22;11065;50.786;7.840;2023-02-02T08:08:42;10.00;59.30
21807;DHT22;11065;50.786;7.840;2023-02-02T08:11:13;10.00;59.20
21807;DHT22;11065;50.786;7.840;2023-02-02T08:13:41;10.10;59.30
21807;DHT22;11065;50.786;7.840;2023-02-02T08:16:11;10.10;59.30
21807;DHT22;11065;50.786;7.840;2023-02-02T08:18:39;10.00;59.30
21807;DHT22;11065;50.786;7.840;2023-02-02T08:21:08;10.10;59.50
21807;DHT22;11065;50.786;7.840;2023-02-02T08:23:37;10.10;59.60
21807;DHT22;11065;50.786;7.840;2023-02-02T08:26:07;10.10;59.50
21807;DHT22;11065;50.786;7.840;2023-02-02T08:28:37;10.10;59.50
21807;DHT22;11065;50.786;7.840;2023-02-02T08:31:08;10.10;60.00
21807;DHT22;11065;50.786;7.840;2023-02-02T08:33:36;10.10;59.40
21807;DHT22;11065;50.786;7.840;2023-02-02T08:36:10;10.10;59.40
21807;DHT22;11065;50.786;7.840;2023-02-02T08:38:39;10.10;59.50
21807;DHT22;11065;50.786;7.840;2023-02-02T08:41:09;10.10;59.50
21807;DHT22;11065;50.786;7.840;2023-02-02T08:43:40;10.10;59.40
21807;DHT22;11065;50.786;7.840;2023-02-02T08:46:09;10.10;59.50
21807;DHT22;11065;50.786;7.840;2023-02-02T08:48:37;10.10;59.50
21807;DHT22;11065;50.786;7.840;2023-02-02T08:51:07;10.10;59.50
21807;DHT22;11065;50.786;7.840;2023-02-02T08:53:35;10.10;59.50
21807;DHT22;11065;50.786;7.840;2023-02-02T08:56:05;10.10;59.60
21807;DHT22;11065;50.786;7.840;2023-02-02T08:58:34;10.10;59.60
21807;DHT22;11065;50.786;7.840;2023-02-02T09:01:08;10.20;59.70
21807;DHT22;11065;50.786;7.840;2023-02-02T09:03:38;10.20;59.70
21807;DHT22;11065;50.786;7.840;2023-02-02T09:06:08;10.20;59.70
21807;DHT22;11065;50.786;7.840;2023-02-02T09:08:37;10.20;59.70
21807;DHT22;11065;50.786;7.840;2023-02-02T09:11:06;10.20;59.70
21807;DHT22;11065;50.786;7.840;2023-02-02T09:13:35;10.20;59.70
21807;DHT22;11065;50.786;7.840;2023-02-02T09:16:08;10.20;59.60
21807;DHT22;11065;50.786;7.840;2023-02-02T09:18:36;10.20;59.60
21807;DHT22;11065;50.786;7.840;2023-02-02T09:21:07;10.20;59.60
21807;DHT22;11065;50.786;7.840;2023-02-02T09:23:37;10.20;59.70
21807;DHT22;11065;50.786;7.840;2023-02-02T09:26:10;10.20;59.70
21807;DHT22;11065;50.786;7.840;2023-02-02T09:28:38;10.20;59.80
21807;DHT22;11065;50.786;7.840;2023-02-02T09:31:08;10.20;59.80
21807;DHT22;11065;50.786;7.840;2023-02-02T09:33:37;10.20;59.80
21807;DHT22;11065;50.786;7.840;2023-02-02T09:36:07;10.20;59.70
21807;DHT22;11065;50.786;7.840;2023-02-02T09:38:35;10.20;59.70
21807;DHT22;11065;50.786;7.840;2023-02-02T09:44:10;10.20;59.90
21807;DHT22;11065;50.786;7.840;2023-02-02T09:46:51;10.20;59.80
21807;DHT22;11065;50.786;7.840;2023-02-02T09:49:26;10.20;59.90
21807;DHT22;11065;50.786;7.840;2023-02-02T09:52:01;10.20;59.80
21807;DHT22;11065;50.786;7.840;2023-02-02T09:54:34;10.30;59.80
21807;DHT22;11065;50.786;7.840;2023-02-02T09:57:11;10.20;59.80
21807;DHT22;11065;50.786;7.840;2023-02-02T09:59:41;10.30;59.90
21807;DHT22;11065;50.786;7.840;2023-02-02T10:02:16;10.30;60.00
21807;DHT22;11065;50.786;7.840;2023-02-02T10:04:48;10.30;60.00
21807;DHT22;11065;50.786;7.840;2023-02-02T10:07:19;10.30;59.90
21807;DHT22;11065;50.786;7.840;2023-02-02T10:09:56;10.30;59.90
21807;DHT22;11065;50.786;7.840;2023-02-02T10:12:32;10.30;59.90
21807;DHT22;11065;50.786;7.840;2023-02-02T10:15:08;10.30;60.00
21807;DHT22;11065;50.786;7.840;2023-02-02T10:17:47;10.30;59.90
21807;DHT22;11065;50.786;7.840;2023-02-02T10:20:29;10.30;59.90
21807;DHT22;11065;50.786;7.840;2023-02-02T10:23:08;10.30;60.00
21807;DHT22;11065;50.786;7.840;2023-02-02T10:25:40;10.30;60.10
21807;DHT22;11065;50.786;7.840;2023-02-02T10:28:16;10.30;60.00
21807;DHT22;11065;50.786;7.840;2023-02-02T10:30:46;10.30;60.00
21807;DHT22;11065;50.786;7.840;2023-02-02T10:33:26;10.30;59.90
21807;DHT22;11065;50.786;7.840;2023-02-02T10:36:07;10.30;60.20
21807;DHT22;11065;50.786;7.840;2023-02-02T10:38:42;10.40;60.80
21807;DHT22;11065;50.786;7.840;2023-02-02T10:41:18;10.30;59.90
21807;DHT22;11065;50.786;7.840;2023-02-02T10:44:00;10.30;60.70
21807;DHT22;11065;50.786;7.840;2023-02-02T10:46:32;10.40;60.30
21807;DHT22;11065;50.786;7.840;2023-02-02T10:49:20;10.40;60.20
21807;DHT22;11065;50.786;7.840;2023-02-02T10:51:54;10.40;60.30
21807;DHT22;11065;50.786;7.840;2023-02-02T10:54:55;10.40;60.20
21807;DHT22;11065;50.786;7.840;2023-02-02T10:57:46;10.40;60.60
21807;DHT22;11065;50.786;7.840;2023-02-02T11:00:20;10.40;60.60
21807;DHT22;11065;50.786;7.840;2023-02-02T11:02:50;10.40;60.50
21807;DHT22;11065;50.786;7.840;2023-02-02T11:05:25;10.40;60.60
21807;DHT22;11065;50.786;7.840;2023-02-02T11:08:15;10.40;60.70
21807;DHT22;11065;50.786;7.840;2023-02-02T11:10:46;10.40;60.90
21807;DHT22;11065;50.786;7.840;2023-02-02T11:13:27;10.40;60.50
21807;DHT22;11065;50.786;7.840;2023-02-02T11:16:19;10.40;60.60
21807;DHT22;11065;50.786;7.840;2023-02-02T11:18:48;10.50;60.70
21807;DHT22;11065;50.786;7.840;2023-02-02T11:21:20;10.50;60.20
21807;DHT22;11065;50.786;7.840;2023-02-02T11:23:53;10.40;60.40
21807;DHT22;11065;50.786;7.840;2023-02-02T11:26:22;10.40;60.50
21807;DHT22;11065;50.786;7.840;2023-02-02T11:28:53;10.40;60.40
21807;DHT22;11065;50.786;7.840;2023-02-02T11:31:36;10.50;60.40
21807;DHT22;11065;50.786;7.840;2023-02-02T11:34:12;10.40;60.60
21807;DHT22;11065;50.786;7.840;2023-02-02T11:37:11;10.40;60.50
21807;DHT22;11065;50.786;7.840;2023-02-02T11:39:39;10.40;60.80
21807;DHT22;11065;50.786;7.840;2023-02-02T11:42:13;10.40;60.50
21807;DHT22;11065;50.786;7.840;2023-02-02T11:44:45;10.40;60.70
21807;DHT22;11065;50.786;7.840;2023-02-02T11:47:19;10.40;60.60
21807;DHT22;11065;50.786;7.840;2023-02-02T11:49:48;10.40;60.40
21807;DHT22;11065;50.786;7.840;2023-02-02T11:52:22;10.40;60.50
21807;DHT22;11065;50.786;7.840;2023-02-02T11:54:53;10.40;60.60
21807;DHT22;11065;50.786;7.840;2023-02-02T11:57:25;10.40;60.50
21807;DHT22;11065;50.786;7.840;2023-02-02T12:00:10;10.40;60.50
21807;DHT22;11065;50.786;7.840;2023-02-02T12:02:45;10.40;60.90
21807;DHT22;11065;50.786;7.840;2023-02-02T12:05:32;10.40;60.50
21807;DHT22;11065;50.786;7.840;2023-02-02T12:08:01;10.40;60.90
21807;DHT22;11065;50.786;7.840;2023-02-02T12:10:37;10.40;60.70
21807;DHT22;11065;50.786;7.840;2023-02-02T12:13:10;10.40;60.70
21807;DHT22;11065;50.786;7.840;2023-02-02T12:15:46;10.40;60.70
21807;DHT22;11065;50.786;7.840;2023-02-02T12:18:33;10.40;60.70
21807;DHT22;11065;50.786;7.840;2023-02-02T12:21:05;10.40;60.80
21807;DHT22;11065;50.786;7.840;2023-02-02T12:23:50;10.40;60.70
21807;DHT22;11065;50.786;7.840;2023-02-02T12:26:24;10.40;60.80
21807;DHT22;11065;50.786;7.840;2023-02-02T12:29:16;10.40;60.60
21807;DHT22;11065;50.786;7.840;2023-02-02T12:31:57;10.40;60.70
21807;DHT22;11065;50.786;7.840;2023-02-02T12:34:34;10.40;60.60
21807;DHT22;11065;50.786;7.840;2023-02-02T12:37:15;10.40;60.50
21807;DHT22;11065;50.786;7.840;2023-02-02T12:39:59;10.40;60.50
21807;DHT22;11065;50.786;7.840;2023-02-02T12:42:45;10.50;60.50
21807;DHT22;11065;50.786;7.840;2023-02-02T12:45:33;10.50;60.70
21807;DHT22;11065;50.786;7.840;2023-02-02T12:48:16;10.50;60.90
21807;DHT22;11065;50.786;7.840;2023-02-02T12:50:56;10.50;61.10
21807;DHT22;11065;50.786;7.840;2023-02-02T12:53:37;10.50;60.90
21807;DHT22;11065;50.786;7.840;2023-02-02T12:56:18;10.50;60.90
21807;DHT22;11065;50.786;7.840;2023-02-02T12:58:54;10.50;60.80
21807;DHT22;11065;50.786;7.840;2023-02-02T13:04:29;10.60;60.60
21807;DHT22;11065;50.786;7.840;2023-02-02T13:10:20;10.60;60.60
21807;DHT22;11065;50.786;7.840;2023-02-02T13:12:55;10.60;60.50
21807;DHT22;11065;50.786;7.840;2023-02-02T13:15:31;10.70;60.30
21807;DHT22;11065;50.786;7.840;2023-02-02T13:18:03;10.70;61.00
21807;DHT22;11065;50.786;7.840;2023-02-02T13:20:38;10.70;60.30
21807;DHT22;11065;50.786;7.840;2023-02-02T13:23:11;10.70;60.20
21807;DHT22;11065;50.786;7.840;2023-02-02T13:25:45;10.70;60.20
21807;DHT22;11065;50.786;7.840;2023-02-02T13:28:26;10.70;60.20
21807;DHT22;11065;50.786;7.840;2023-02-02T13:30:58;10.80;60.40
21807;DHT22;11065;50.786;7.840;2023-02-02T13:33:33;10.80;60.30
21807;DHT22;11065;50.786;7.840;2023-02-02T13:36:07;10.80;61.00
21807;DHT22;11065;50.786;7.840;2023-02-02T13:38:36;10.80;60.30
21807;DHT22;11065;50.786;7.840;2023-02-02T13:41:09;10.80;60.40
21807;DHT22;11065;50.786;7.840;2023-02-02T13:43:47;10.70;60.40
21807;DHT22;11065;50.786;7.840;2023-02-02T13:46:25;10.80;60.40
21807;DHT22;11065;50.786;7.840;2023-02-02T13:49:01;10.90;60.40
21807;DHT22;11065;50.786;7.840;2023-02-02T13:51:44;10.80;60.30
21807;DHT22;11065;50.786;7.840;2023-02-02T13:54:51;10.90;60.40
21807;DHT22;11065;50.786;7.840;2023-02-02T13:57:44;10.90;60.40
21807;DHT22;11065;50.786;7.840;2023-02-02T14:00:21;10.80;60.10
21807;DHT22;11065;50.786;7.840;2023-02-02T14:02:51;10.90;60.00
21807;DHT22;11065;50.786;7.840;2023-02-02T14:05:24;10.90;60.00
21807;DHT22;11065;50.786;7.840;2023-02-02T14:07:58;10.80;60.00
21807;DHT22;11065;50.786;7.840;2023-02-02T14:10:31;10.90;60.10
21807;DHT22;11065;50.786;7.840;2023-02-02T14:13:07;10.90;60.00
21807;DHT22;11065;50.786;7.840;2023-02-02T14:16:00;10.90;60.00
21807;DHT22;11065;50.786;7.840;2023-02-02T14:18:51;10.90;60.00
21807;DHT22;11065;50.786;7.840;2023-02-02T14:21:57;10.90;60.30
21807;DHT22;11065;50.786;7.840;2023-02-02T14:24:42;10.90;60.00
21807;DHT22;11065;50.786;7.840;2023-02-02T14:30:33;10.80;60.00
21807;DHT22;11065;50.786;7.840;2023-02-02T14:33:23;10.80;59.90
21807;DHT22;11065;50.786;7.840;2023-02-02T14:36:03;10.80;60.00
21807;DHT22;11065;50.786;7.840;2023-02-02T14:38:59;10.80;60.00
21807;DHT22;11065;50.786;7.840;2023-02-02T14:41:41;10.80;60.00
21807;DHT22;11065;50.786;7.840;2023-02-02T14:44:29;10.90;60.00
21807;DHT22;11065;50.786;7.840;2023-02-02T14:46:57;10.90;59.90
21807;DHT22;11065;50.786;7.840;2023-02-02T14:49:33;10.90;59.90
21807;DHT22;11065;50.786;7.840;2023-02-02T14:52:02;10.90;60.00
21807;DHT22;11065;50.786;7.840;2023-02-02T14:54:34;10.80;60.00
21807;DHT22;11065;50.786;7.840;2023-02-02T14:57:18;10.90;60.00
21807;DHT22;11065;50.786;7.840;2023-02-02T14:59:47;10.90;60.00
21807;DHT22;11065;50.786;7.840;2023-02-02T15:02:18;10.90;60.00
21807;DHT22;11065;50.786;7.840;2023-02-02T15:04:49;11.00;60.10
21807;DHT22;11065;50.786;7.840;2023-02-02T15:07:51;11.00;60.00
21807;DHT22;11065;50.786;7.840;2023-02-02T15:14:02;11.00;59.90
21807;DHT22;11065;50.786;7.840;2023-02-02T15:16:36;11.00;59.90
21807;DHT22;11065;50.786;7.840;2023-02-02T15:19:26;11.00;59.90
21807;DHT22;11065;50.786;7.840;2023-02-02T15:24:46;10.90;60.00
21807;DHT22;11065;50.786;7.840;2023-02-02T15:27:16;10.90;60.00
21807;DHT22;11065;50.786;7.840;2023-02-02T15:29:48;10.90;60.10
21807;DHT22;11065;50.786;7.840;2023-02-02T15:32:20;10.90;60.20
21807;DHT22;11065;50.786;7.840;2023-02-02T15:34:52;10.90;60.20
21807;DHT22;11065;50.786;7.840;2023-02-02T15:37:25;10.90;60.30
21807;DHT22;11065;50.786;7.840;2023-02-02T15:39:57;10.90;60.30
21807;DHT22;11065;50.786;7.840;2023-02-02T15:42:35;10.90;60.20
21807;DHT22;11065;50.786;7.840;2023-02-02T15:45:31;10.90;60.20
21807;DHT22;11065;50.786;7.840;2023-02-02T15:48:06;10.90;60.20
21807;DHT22;11065;50.786;7.840;2023-02-02T15:50:36;10.90;60.20
21807;DHT22;11065;50.786;7.840;2023-02-02T15:53:17;10.90;60.30
21807;DHT22;11065;50.786;7.840;2023-02-02T15:55:45;10.90;60.30
21807;DHT22;11065;50.786;7.840;2023-02-02T15:58:26;10.90;60.20
21807;DHT22;11065;50.786;7.840;2023-02-02T16:01:00;10.90;60.20
21807;DHT22;11065;50.786;7.840;2023-02-02T16:03:40;10.90;60.20
21807;DHT22;11065;50.786;7.840;2023-02-02T16:06:10;10.90;60.20
21807;DHT22;11065;50.786;7.840;2023-02-02T16:08:40;10.90;60.10
21807;DHT22;11065;50.786;7.840;2023-02-02T16:11:10;10.90;60.70
21807;DHT22;11065;50.786;7.840;2023-02-02T16:13:39;11.00;60.20
21807;DHT22;11065;50.786;7.840;2023-02-02T16:16:21;11.00;60.10
21807;DHT22;11065;50.786;7.840;2023-02-02T16:19:04;10.90;60.10
21807;DHT22;11065;50.786;7.840;2023-02-02T16:21:34;11.00;60.20
21807;DHT22;11065;50.786;7.840;2023-02-02T16:24:09;11.00;60.10
21807;DHT22;11065;50.786;7.840;2023-02-02T16:26:41;11.00;60.10
21807;DHT22;11065;50.786;7.840;2023-02-02T16:29:11;11.00;60.10